createdAt,value
2018-03-31T00:01:40.856Z,10.90
2018-03-31T00:04:07.915Z,10.90
2018-03-31T00:06:37.151Z,10.90
2018-03-31T00:09:18.930Z,10.90
2018-03-31T00:11:49.262Z,10.90
2018-03-31T00:14:16.303Z,10.90
2018-03-31T00:16:55.114Z,10.90
2018-03-31T00:19:25.130Z,10.90
2018-03-31T00:21:52.305Z,10.90
2018-03-31T00:24:19.336Z,10.90
2018-03-31T00:26:55.187Z,10.90
2018-03-31T00:29:22.671Z,10.90
2018-03-31T00:32:07.001Z,10.90
2018-03-31T00:34:49.021Z,10.90
2018-03-31T00:37:16.047Z,10.90
2018-03-31T00:39:43.284Z,10.90
2018-03-31T00:42:19.042Z,10.90
2018-03-31T00:44:46.146Z,10.90
2018-03-31T00:47:13.259Z,10.90
2018-03-31T00:49:40.690Z,10.90
2018-03-31T00:52:30.809Z,10.90
2018-03-31T00:58:01.538Z,10.90
2018-03-31T01:00:31.241Z,10.90
2018-03-31T01:02:58.388Z,10.90
2018-03-31T01:05:25.634Z,10.90
2018-03-31T01:07:53.130Z,10.90
2018-03-31T01:10:20.199Z,10.90
2018-03-31T01:12:49.796Z,10.90
2018-03-31T01:15:42.835Z,10.90
2018-03-31T01:18:25.122Z,10.90
2018-03-31T01:21:12.757Z,10.80
2018-03-31T01:24:00.752Z,10.90
2018-03-31T01:26:28.284Z,10.90
2018-03-31T01:28:55.318Z,10.90
2018-03-31T01:31:23.314Z,10.80
2018-03-31T01:33:50.401Z,10.80
2018-03-31T01:36:17.820Z,10.90
2018-03-31T01:38:49.327Z,10.90
2018-03-31T01:41:16.351Z,10.90
2018-03-31T01:46:36.143Z,10.80
2018-03-31T01:49:19.207Z,10.80
2018-03-31T01:51:46.228Z,10.80
2018-03-31T01:54:25.251Z,10.80
2018-03-31T01:57:07.138Z,10.80
2018-03-31T01:59:43.210Z,10.80
2018-03-31T02:02:19.142Z,10.80
2018-03-31T02:05:01.038Z,10.80
2018-03-31T02:10:25.192Z,10.80
2018-03-31T02:13:07.033Z,10.80
2018-03-31T02:15:34.190Z,10.80
2018-03-31T02:18:07.263Z,10.80
2018-03-31T02:20:43.431Z,10.80
2018-03-31T02:23:10.490Z,10.80
2018-03-31T02:25:43.594Z,10.80
2018-03-31T02:28:25.152Z,10.80
2018-03-31T02:30:52.221Z,10.80
2018-03-31T02:33:19.622Z,10.80
2018-03-31T02:36:01.084Z,10.80
2018-03-31T02:38:43.030Z,10.80
2018-03-31T04:05:55.256Z,10.80
2018-03-31T04:08:31.204Z,10.80
2018-03-31T04:14:12.687Z,10.80
2018-03-31T04:16:43.651Z,10.80
2018-03-31T04:19:19.210Z,10.80
2018-03-31T04:21:49.412Z,10.80
2018-03-31T04:24:25.184Z,10.80
2018-03-31T04:26:52.347Z,10.80
2018-03-31T04:29:31.152Z,10.80
2018-03-31T04:31:58.486Z,10.80
2018-03-31T04:34:37.320Z,10.80
2018-03-31T04:37:24.678Z,10.80
2018-03-31T04:43:06.715Z,10.80
2018-03-31T04:45:43.381Z,10.80
2018-03-31T04:48:13.443Z,10.80
2018-03-31T04:50:40.842Z,10.80
2018-03-31T04:53:13.407Z,10.80
2018-03-31T04:55:43.303Z,10.80
2018-03-31T04:58:10.608Z,10.80
2018-03-31T05:00:37.869Z,10.80
2018-03-31T05:03:04.886Z,10.80
2018-03-31T05:05:31.914Z,10.70
2018-03-31T05:08:07.192Z,10.80
2018-03-31T05:10:35.814Z,10.80
2018-03-31T05:13:02.893Z,10.80
2018-03-31T05:15:49.080Z,10.70
2018-03-31T05:21:25.249Z,10.80
2018-03-31T05:23:52.448Z,10.80
2018-03-31T05:26:19.555Z,10.80
2018-03-31T05:28:46.764Z,10.80
2018-03-31T05:31:14.335Z,10.70
2018-03-31T05:33:41.513Z,10.70
2018-03-31T05:36:13.437Z,10.80
2018-03-31T05:38:41.095Z,10.80
2018-03-31T05:41:08.620Z,10.70
2018-03-31T05:43:43.283Z,10.80
2018-03-31T05:46:10.306Z,10.70
2018-03-31T05:48:37.503Z,10.70
2018-03-31T05:51:13.235Z,10.70
2018-03-31T05:53:40.313Z,10.70
2018-03-31T05:56:07.470Z,10.70
2018-03-31T05:58:54.675Z,10.70
2018-03-31T06:01:25.515Z,10.70
2018-03-31T06:04:12.730Z,10.80
2018-03-31T06:06:43.455Z,10.70
2018-03-31T06:09:30.790Z,10.70
2018-03-31T06:12:13.273Z,10.80
2018-03-31T06:17:32.991Z,10.80
2018-03-31T06:22:55.515Z,10.80
2018-03-31T06:25:25.447Z,10.80
2018-03-31T06:28:12.751Z,10.80
2018-03-31T06:30:40.249Z,10.80
2018-03-31T06:33:07.243Z,10.80
2018-03-31T06:35:37.362Z,10.80
2018-03-31T06:38:04.839Z,10.80
2018-03-31T06:40:49.289Z,10.80
2018-03-31T06:43:19.363Z,10.80
2018-03-31T06:48:43.391Z,10.80
2018-03-31T06:51:25.190Z,10.80
2018-03-31T06:53:52.226Z,10.80
2018-03-31T06:56:37.537Z,10.80
2018-03-31T06:59:04.553Z,10.80
2018-03-31T07:01:31.983Z,11.00
2018-03-31T07:03:59.052Z,11.00
2018-03-31T07:06:48.762Z,11.40
2018-03-31T07:09:19.764Z,11.30
2018-03-31T07:12:02.090Z,11.90
2018-03-31T07:14:29.248Z,11.90
2018-03-31T07:17:07.464Z,12.10
2018-03-31T07:19:37.440Z,12.20
2018-03-31T07:27:51.844Z,12.70
2018-03-31T07:30:19.000Z,12.80
2018-03-31T07:32:46.015Z,13.00
2018-03-31T07:35:13.254Z,13.10
2018-03-31T07:37:40.833Z,13.20
2018-03-31T07:40:08.182Z,13.20
2018-03-31T07:42:35.206Z,13.40
2018-03-31T07:45:02.875Z,13.60
2018-03-31T07:47:30.339Z,13.60
2018-03-31T07:49:57.586Z,13.60
2018-03-31T07:52:25.052Z,13.80
2018-03-31T07:54:52.509Z,13.80
2018-03-31T07:57:19.626Z,13.80
2018-03-31T07:59:46.635Z,14.00
2018-03-31T08:02:13.642Z,14.10
2018-03-31T08:04:41.094Z,14.00
2018-03-31T08:07:08.586Z,14.20
2018-03-31T08:09:35.902Z,14.20
2018-03-31T08:12:03.062Z,14.40
2018-03-31T08:14:30.527Z,14.40
2018-03-31T08:16:57.882Z,14.40
2018-03-31T08:19:25.089Z,14.60
2018-03-31T08:21:55.640Z,14.60
2018-03-31T08:24:22.666Z,14.50
2018-03-31T08:26:49.942Z,14.50
2018-03-31T08:29:17.128Z,14.60
2018-03-31T08:31:44.471Z,14.60
2018-03-31T08:34:11.598Z,14.70
2018-03-31T08:36:38.774Z,14.70
2018-03-31T08:39:06.222Z,14.80
2018-03-31T08:41:33.338Z,14.80
2018-03-31T08:44:01.014Z,14.80
2018-03-31T08:46:28.046Z,14.80
2018-03-31T08:48:55.703Z,14.90
2018-03-31T08:51:23.369Z,14.80
2018-03-31T08:53:50.821Z,14.90
2018-03-31T08:56:18.278Z,15.10
2018-03-31T08:58:45.601Z,15.10
2018-03-31T09:01:12.804Z,15.00
2018-03-31T09:03:39.832Z,15.00
2018-03-31T09:06:07.345Z,14.60
2018-03-31T09:08:34.539Z,14.60
2018-03-31T09:11:02.202Z,14.10
2018-03-31T09:13:29.689Z,13.90
2018-03-31T09:15:56.735Z,13.90
2018-03-31T09:18:23.983Z,13.70
2018-03-31T09:20:51.207Z,13.50
2018-03-31T09:23:18.860Z,13.30
2018-03-31T09:25:45.910Z,13.30
2018-03-31T09:28:13.563Z,13.10
2018-03-31T09:30:40.974Z,13.10
2018-03-31T09:33:08.123Z,13.10
2018-03-31T09:35:35.340Z,13.00
2018-03-31T09:38:02.565Z,12.90
2018-03-31T09:40:29.870Z,12.90
2018-03-31T09:42:57.079Z,12.80
2018-03-31T09:45:24.740Z,12.70
2018-03-31T09:47:52.246Z,12.70
2018-03-31T09:50:19.442Z,12.70
2018-03-31T09:52:47.375Z,12.60
2018-03-31T09:55:14.434Z,12.60
2018-03-31T09:57:41.609Z,12.50
2018-03-31T10:00:09.183Z,12.50
2018-03-31T10:02:36.529Z,12.50
2018-03-31T10:05:13.511Z,12.40
2018-03-31T10:07:40.655Z,12.40
2018-03-31T10:10:07.677Z,12.40
2018-03-31T10:12:34.743Z,12.40
2018-03-31T10:15:02.151Z,12.40
2018-03-31T10:17:29.171Z,12.40
2018-03-31T10:19:56.238Z,12.30
2018-03-31T10:22:23.278Z,12.30
2018-03-31T10:24:50.371Z,12.30
2018-03-31T10:27:17.720Z,12.30
2018-03-31T10:29:44.885Z,12.30
2018-03-31T10:32:12.118Z,12.30
2018-03-31T10:34:39.465Z,12.20
2018-03-31T10:37:06.518Z,12.20
2018-03-31T10:39:37.654Z,12.20
2018-03-31T10:42:05.289Z,12.20
2018-03-31T10:44:32.489Z,12.20
2018-03-31T10:46:59.830Z,12.20
2018-03-31T10:49:26.997Z,12.10
2018-03-31T10:51:54.360Z,12.10
2018-03-31T10:54:21.389Z,12.10
2018-03-31T10:56:48.745Z,12.10
2018-03-31T10:59:16.074Z,12.10
2018-03-31T11:01:43.845Z,12.10
2018-03-31T11:04:11.139Z,12.10
2018-03-31T11:06:38.158Z,12.10
2018-03-31T11:09:05.296Z,12.10
2018-03-31T11:11:32.534Z,12.10
2018-03-31T11:14:00.210Z,12.10
2018-03-31T11:16:27.242Z,12.10
2018-03-31T11:18:54.904Z,12.50
2018-03-31T11:21:22.151Z,12.50
2018-03-31T11:23:49.739Z,12.90
2018-03-31T11:26:16.981Z,12.90
2018-03-31T11:28:44.116Z,13.10
2018-03-31T11:31:11.768Z,13.60
2018-03-31T11:33:39.481Z,13.70
2018-03-31T11:36:07.700Z,13.70
2018-03-31T11:38:35.362Z,14.10
2018-03-31T11:41:02.806Z,14.20
2018-03-31T11:43:29.867Z,14.20
2018-03-31T11:45:57.352Z,14.40
2018-03-31T11:48:31.431Z,14.40
2018-03-31T11:50:58.775Z,14.50
2018-03-31T11:53:26.242Z,14.60
2018-03-31T11:55:53.898Z,14.70
2018-03-31T11:58:21.603Z,14.80
2018-03-31T12:00:48.814Z,14.80
2018-03-31T12:03:16.270Z,14.80
2018-03-31T12:05:43.933Z,14.90
2018-03-31T12:08:11.634Z,15.00
2018-03-31T12:10:38.847Z,15.00
2018-03-31T12:13:06.426Z,14.90
2018-03-31T12:15:33.627Z,14.90
2018-03-31T12:18:00.821Z,15.00
2018-03-31T12:20:28.267Z,15.10
2018-03-31T12:22:55.915Z,15.00
2018-03-31T12:25:23.591Z,15.00
2018-03-31T12:27:51.246Z,15.20
2018-03-31T12:30:18.703Z,15.20
2018-03-31T12:32:46.287Z,15.20
2018-03-31T12:35:13.406Z,15.20
2018-03-31T12:37:40.814Z,15.40
2018-03-31T12:40:08.041Z,15.40
2018-03-31T12:42:35.073Z,15.40
2018-03-31T12:45:02.212Z,15.40
2018-03-31T12:47:29.662Z,15.50
2018-03-31T12:49:57.271Z,15.50
2018-03-31T12:52:24.495Z,15.50
2018-03-31T12:54:51.659Z,15.50
2018-03-31T12:57:18.667Z,15.50
2018-03-31T12:59:45.917Z,15.60
2018-03-31T13:02:13.388Z,15.60
2018-03-31T13:04:40.423Z,15.60
2018-03-31T13:07:08.007Z,15.70
2018-03-31T13:09:35.371Z,15.70
2018-03-31T13:12:02.578Z,15.70
2018-03-31T13:14:30.019Z,15.70
2018-03-31T13:16:57.050Z,15.70
2018-03-31T13:19:24.205Z,15.80
2018-03-31T13:21:51.284Z,15.80
2018-03-31T13:24:18.437Z,15.80
2018-03-31T13:26:45.920Z,15.80
2018-03-31T13:29:13.065Z,15.80
2018-03-31T13:31:40.194Z,15.80
2018-03-31T13:34:07.434Z,15.80
2018-03-31T13:36:34.925Z,15.90
2018-03-31T13:39:01.943Z,15.90
2018-03-31T13:41:29.525Z,15.90
2018-03-31T13:43:56.659Z,15.90
2018-03-31T13:46:24.029Z,15.90
2018-03-31T13:48:51.181Z,15.90
2018-03-31T13:51:18.238Z,16.00
2018-03-31T13:53:45.441Z,15.90
2018-03-31T13:56:12.846Z,15.90
2018-03-31T13:58:40.084Z,16.00
2018-03-31T14:01:07.202Z,16.00
2018-03-31T14:03:34.659Z,15.90
2018-03-31T14:06:02.439Z,16.00
2018-03-31T14:08:29.774Z,16.00
2018-03-31T14:10:57.364Z,16.00
2018-03-31T14:13:24.383Z,16.00
2018-03-31T14:15:58.000Z,16.00
2018-03-31T14:18:25.022Z,15.90
2018-03-31T14:20:52.038Z,16.00
2018-03-31T14:23:19.252Z,15.90
2018-03-31T14:25:46.463Z,15.90
2018-03-31T14:28:14.058Z,16.10
2018-03-31T14:30:41.383Z,16.10
2018-03-31T14:33:08.970Z,16.00
2018-03-31T14:35:36.089Z,16.00
2018-03-31T14:38:03.490Z,16.10
2018-03-31T14:40:30.918Z,16.20
2018-03-31T14:42:58.179Z,16.10
2018-03-31T14:45:26.244Z,16.10
2018-03-31T14:47:53.372Z,16.30
2018-03-31T14:50:20.828Z,16.20
2018-03-31T14:52:48.299Z,16.20
2018-03-31T14:55:15.542Z,16.30
2018-03-31T14:57:43.238Z,16.40
2018-03-31T15:00:10.369Z,16.40
2018-03-31T15:02:37.401Z,16.30
2018-03-31T15:05:04.540Z,16.40
2018-03-31T15:07:32.212Z,16.50
2018-03-31T15:09:59.255Z,16.50
2018-03-31T15:12:26.629Z,16.40
2018-03-31T15:14:53.777Z,16.50
2018-03-31T15:17:21.144Z,16.60
2018-03-31T15:19:48.252Z,16.60
2018-03-31T15:22:15.846Z,16.50
2018-03-31T15:24:42.969Z,16.50
2018-03-31T15:27:10.552Z,16.50
2018-03-31T15:29:37.999Z,16.50
2018-03-31T15:32:05.250Z,16.50
2018-03-31T15:34:32.580Z,16.50
2018-03-31T15:37:00.158Z,16.60
2018-03-31T15:39:27.284Z,16.60
2018-03-31T15:41:54.741Z,16.50
2018-03-31T15:44:22.531Z,16.70
2018-03-31T15:46:49.655Z,16.70
2018-03-31T15:49:17.239Z,16.50
2018-03-31T15:51:44.370Z,16.50
2018-03-31T15:54:11.422Z,16.50
2018-03-31T15:56:38.481Z,16.70
2018-03-31T15:59:05.494Z,16.60
2018-03-31T16:01:33.162Z,16.00
2018-03-31T16:04:00.740Z,15.70
2018-03-31T16:06:27.806Z,15.70
2018-03-31T16:08:54.823Z,15.40
2018-03-31T16:11:21.958Z,15.20
2018-03-31T16:13:49.539Z,14.90
2018-03-31T16:16:16.659Z,14.90
2018-03-31T16:18:55.711Z,14.80
2018-03-31T16:21:22.854Z,14.70
2018-03-31T16:23:50.430Z,14.50
2018-03-31T16:26:17.559Z,14.50
2018-03-31T16:28:45.010Z,14.40
2018-03-31T16:31:12.481Z,14.30
2018-03-31T16:33:39.834Z,14.30
2018-03-31T16:36:07.087Z,14.20
2018-03-31T16:38:34.337Z,14.20
2018-03-31T16:41:01.360Z,14.10
2018-03-31T16:43:28.516Z,14.10
2018-03-31T16:45:56.600Z,14.00
2018-03-31T16:48:23.766Z,14.00
2018-03-31T16:50:50.888Z,13.90
2018-03-31T16:53:19.772Z,13.90
2018-03-31T16:55:47.202Z,13.80
2018-03-31T16:58:14.411Z,13.80
2018-03-31T17:00:41.734Z,13.80
2018-03-31T17:03:09.182Z,13.80
2018-03-31T17:05:36.772Z,13.70
2018-03-31T17:08:03.900Z,13.70
2018-03-31T17:10:31.556Z,13.70
2018-03-31T17:12:59.144Z,13.60
2018-03-31T17:15:26.195Z,13.60
2018-03-31T17:17:53.358Z,13.60
2018-03-31T17:20:20.392Z,13.60
2018-03-31T17:22:47.620Z,13.60
2018-03-31T17:25:14.655Z,13.50
2018-03-31T17:27:42.075Z,13.50
2018-03-31T17:30:09.355Z,13.50
2018-03-31T17:32:36.785Z,13.50
2018-03-31T17:35:04.071Z,13.50
2018-03-31T17:37:31.531Z,13.40
2018-03-31T17:39:58.570Z,13.40
2018-03-31T17:42:26.022Z,13.40
2018-03-31T17:44:53.720Z,13.40
2018-03-31T17:47:20.868Z,13.40
2018-03-31T17:49:47.998Z,13.30
2018-03-31T17:52:15.031Z,13.30
2018-03-31T17:54:42.056Z,13.30
2018-03-31T17:57:09.252Z,13.30
2018-03-31T17:59:36.794Z,13.30
2018-03-31T18:02:04.038Z,13.30
2018-03-31T18:04:31.496Z,13.20
2018-03-31T18:06:58.746Z,13.30
2018-03-31T18:09:26.542Z,13.20
2018-03-31T18:11:53.863Z,13.20
2018-03-31T18:14:21.406Z,13.20
2018-03-31T18:16:48.578Z,13.20
2018-03-31T18:19:16.128Z,13.20
2018-03-31T18:21:43.272Z,13.20
2018-03-31T18:24:10.853Z,13.20
2018-03-31T18:26:38.023Z,13.10
2018-03-31T18:29:05.250Z,13.10
2018-03-31T18:31:32.496Z,13.10
2018-03-31T18:33:59.726Z,13.10
2018-03-31T18:36:27.210Z,13.10
2018-03-31T18:38:54.423Z,13.10
2018-03-31T18:41:21.688Z,13.10
2018-03-31T18:43:49.106Z,13.00
2018-03-31T18:46:31.770Z,13.00
2018-03-31T18:48:58.798Z,13.00
2018-03-31T18:51:26.500Z,13.00
2018-03-31T18:53:54.248Z,13.00
2018-03-31T18:56:21.368Z,13.00
2018-03-31T18:58:48.826Z,13.00
2018-03-31T19:01:16.338Z,13.00
2018-03-31T19:03:43.662Z,13.00
2018-03-31T19:06:10.927Z,13.00
2018-03-31T19:08:38.044Z,13.00
2018-03-31T19:11:05.511Z,12.90
2018-03-31T19:13:32.558Z,12.90
2018-03-31T19:15:59.567Z,12.90
2018-03-31T19:18:26.634Z,12.90
2018-03-31T19:20:54.110Z,12.90
2018-03-31T19:23:21.268Z,12.90
2018-03-31T19:25:48.426Z,12.90
2018-03-31T19:28:15.690Z,12.90
2018-03-31T19:30:48.252Z,12.90
2018-03-31T19:33:15.612Z,12.90
2018-03-31T19:35:48.569Z,12.90
2018-03-31T19:38:15.743Z,12.90
2018-03-31T19:40:43.091Z,12.80
2018-03-31T19:43:10.242Z,12.80
2018-03-31T19:45:37.388Z,12.80
2018-03-31T19:48:04.510Z,12.80
2018-03-31T19:50:31.974Z,12.80
2018-03-31T19:53:01.882Z,12.80
2018-03-31T19:55:29.539Z,12.80
2018-03-31T19:57:57.335Z,12.80
2018-03-31T20:00:24.445Z,12.80
2018-03-31T20:02:51.955Z,12.80
2018-03-31T20:05:20.102Z,12.80
2018-03-31T20:07:47.403Z,12.80
2018-03-31T20:10:14.499Z,12.80
2018-03-31T20:12:41.662Z,12.80
2018-03-31T20:15:13.937Z,12.80
2018-03-31T20:17:41.145Z,12.80
2018-03-31T20:20:08.733Z,12.70
2018-03-31T20:22:36.201Z,12.80
2018-03-31T20:25:03.319Z,12.80
2018-03-31T20:27:31.179Z,12.70
2018-03-31T20:29:58.630Z,12.70
2018-03-31T20:32:26.095Z,12.70
2018-03-31T20:34:53.552Z,12.70
2018-03-31T20:37:21.006Z,12.70
2018-03-31T20:39:48.455Z,12.70
2018-03-31T20:42:15.930Z,12.70
2018-03-31T20:44:43.289Z,12.70
2018-03-31T20:47:10.544Z,12.70
2018-03-31T20:49:37.676Z,12.60
2018-03-31T20:52:04.746Z,12.70
2018-03-31T20:54:31.980Z,12.70
2018-03-31T20:56:59.218Z,12.60
2018-03-31T20:59:26.726Z,12.60
2018-03-31T21:01:53.935Z,12.60
2018-03-31T21:04:21.308Z,12.60
2018-03-31T21:06:48.477Z,12.60
2018-03-31T21:09:15.599Z,12.60
2018-03-31T21:11:42.724Z,12.60
2018-03-31T21:14:10.391Z,12.60
2018-03-31T21:16:37.878Z,12.60
2018-03-31T21:19:05.133Z,12.60
2018-03-31T21:21:32.222Z,12.60
2018-03-31T21:23:59.386Z,12.50
2018-03-31T21:26:27.070Z,12.50
2018-03-31T21:28:54.424Z,12.50
2018-03-31T21:31:21.774Z,12.50
2018-03-31T21:33:48.922Z,12.50
2018-03-31T21:36:16.066Z,12.50
2018-03-31T21:38:43.425Z,12.50
2018-03-31T21:41:10.690Z,12.50
2018-03-31T21:43:38.000Z,12.50
2018-03-31T21:46:05.418Z,12.50
2018-03-31T21:48:32.722Z,12.50
2018-03-31T21:51:00.436Z,12.50
2018-03-31T21:53:27.624Z,12.50
2018-03-31T21:55:56.525Z,12.50
2018-03-31T21:58:24.222Z,12.50
2018-03-31T22:00:51.423Z,12.50
2018-03-31T22:03:18.894Z,12.50
2018-03-31T22:05:45.935Z,12.50
2018-03-31T22:08:13.527Z,12.50
2018-03-31T22:10:40.642Z,12.50
2018-03-31T22:13:14.046Z,12.50
2018-03-31T22:15:47.334Z,12.50
2018-03-31T22:18:14.490Z,12.50
2018-03-31T22:20:41.525Z,12.50
2018-03-31T22:23:09.118Z,12.50
2018-03-31T22:25:36.228Z,12.50
2018-03-31T22:28:03.312Z,12.50
2018-03-31T22:30:30.522Z,12.50
2018-03-31T22:32:58.316Z,12.50
2018-03-31T22:35:25.489Z,12.50
2018-03-31T22:37:52.538Z,12.50
2018-03-31T22:40:20.087Z,12.50
2018-03-31T22:42:47.198Z,12.40
2018-03-31T22:45:14.638Z,12.40
2018-03-31T22:47:41.706Z,12.40
2018-03-31T22:50:08.877Z,12.40
2018-03-31T22:52:35.999Z,12.40
2018-03-31T22:55:03.578Z,12.40
2018-03-31T22:57:30.707Z,12.40
2018-03-31T22:59:58.384Z,12.40
2018-03-31T23:02:25.533Z,12.40
2018-03-31T23:04:52.589Z,12.40
2018-03-31T23:07:19.704Z,12.40
2018-03-31T23:09:47.372Z,12.40
2018-03-31T23:12:14.830Z,12.40
2018-03-31T23:14:42.615Z,12.40
2018-03-31T23:17:09.741Z,12.40
2018-03-31T23:19:37.190Z,12.40
2018-03-31T23:22:04.647Z,12.40
2018-03-31T23:24:32.062Z,12.40
2018-03-31T23:26:59.150Z,12.40
2018-03-31T23:29:26.730Z,12.40
2018-03-31T23:31:53.758Z,12.40
2018-03-31T23:34:20.771Z,12.40
2018-03-31T23:36:47.817Z,12.40
2018-03-31T23:39:15.002Z,12.40
2018-03-31T23:41:42.467Z,12.40
2018-03-31T23:44:14.231Z,12.40
2018-03-31T23:46:41.669Z,12.40
2018-03-31T23:49:09.127Z,12.40
2018-03-31T23:51:36.698Z,12.30
2018-03-31T23:54:03.902Z,12.40
2018-03-31T23:56:31.093Z,12.40
2018-03-31T23:58:58.130Z,12.40
